sensor_id;sensor_type;location;lat;lon;timestamp;P1;durP1;ratioP1;P2;durP2;ratioP2
10269;SDS011;70826;50.930;5.334;2023-07-31T00:01:38;6.07;;;5.57;;
10269;SDS011;70826;50.930;5.334;2023-07-31T00:04:04;6.35;;;5.90;;
10269;SDS011;70826;50.930;5.334;2023-07-31T00:06:32;5.97;;;5.43;;
10269;SDS011;70826;50.930;5.334;2023-07-31T00:08:59;5.95;;;5.55;;
10269;SDS011;70826;50.930;5.334;2023-07-31T00:11:30;6.88;;;6.45;;
10269;SDS011;70826;50.930;5.334;2023-07-31T00:13:56;8.43;;;7.82;;
10269;SDS011;70826;50.930;5.334;2023-07-31T00:16:23;6.00;;;5.60;;
10269;SDS011;70826;50.930;5.334;2023-07-31T00:18:48;6.35;;;5.75;;
10269;SDS011;70826;50.930;5.334;2023-07-31T00:21:19;6.10;;;5.53;;
10269;SDS011;70826;50.930;5.334;2023-07-31T00:23:45;6.43;;;5.93;;
10269;SDS011;70826;50.930;5.334;2023-07-31T00:26:10;6.30;;;5.80;;
10269;SDS011;70826;50.930;5.334;2023-07-31T00:28:36;5.97;;;5.57;;
10269;SDS011;70826;50.930;5.334;2023-07-31T00:31:01;6.32;;;5.82;;
10269;SDS011;70826;50.930;5.334;2023-07-31T00:33:28;6.00;;;5.50;;
10269;SDS011;70826;50.930;5.334;2023-07-31T00:35:56;5.85;;;5.35;;
10269;SDS011;70826;50.930;5.334;2023-07-31T00:38:21;5.85;;;5.45;;
10269;SDS011;70826;50.930;5.334;2023-07-31T00:40:47;5.82;;;5.35;;
10269;SDS011;70826;50.930;5.334;2023-07-31T00:43:13;6.00;;;5.50;;
10269;SDS011;70826;50.930;5.334;2023-07-31T00:45:38;6.20;;;5.70;;
10269;SDS011;70826;50.930;5.334;2023-07-31T00:48:04;6.32;;;5.82;;
10269;SDS011;70826;50.930;5.334;2023-07-31T00:50:33;6.30;;;5.80;;
10269;SDS011;70826;50.930;5.334;2023-07-31T00:52:59;5.70;;;5.30;;
10269;SDS011;70826;50.930;5.334;2023-07-31T00:55:25;6.20;;;5.70;;
10269;SDS011;70826;50.930;5.334;2023-07-31T00:57:51;5.72;;;5.32;;
10269;SDS011;70826;50.930;5.334;2023-07-31T01:00:20;5.82;;;5.32;;
10269;SDS011;70826;50.930;5.334;2023-07-31T01:02:46;5.75;;;5.35;;
10269;SDS011;70826;50.930;5.334;2023-07-31T01:05:16;5.97;;;5.53;;
10269;SDS011;70826;50.930;5.334;2023-07-31T01:07:57;6.30;;;5.80;;
10269;SDS011;70826;50.930;5.334;2023-07-31T01:10:29;6.32;;;5.82;;
10269;SDS011;70826;50.930;5.334;2023-07-31T01:13:00;6.22;;;5.72;;
10269;SDS011;70826;50.930;5.334;2023-07-31T01:15:27;6.53;;;6.03;;
10269;SDS011;70826;50.930;5.334;2023-07-31T01:17:52;5.88;;;5.38;;
10269;SDS011;70826;50.930;5.334;2023-07-31T01:20:19;6.05;;;5.65;;
10269;SDS011;70826;50.930;5.334;2023-07-31T01:31:09;6.45;;;5.95;;
10269;SDS011;70826;50.930;5.334;2023-07-31T01:33:36;6.40;;;5.93;;
10269;SDS011;70826;50.930;5.334;2023-07-31T01:36:03;6.75;;;6.25;;
10269;SDS011;70826;50.930;5.334;2023-07-31T01:38:31;6.22;;;5.72;;
10269;SDS011;70826;50.930;5.334;2023-07-31T01:41:01;6.43;;;5.93;;
10269;SDS011;70826;50.930;5.334;2023-07-31T01:43:29;6.28;;;5.78;;
10269;SDS011;70826;50.930;5.334;2023-07-31T01:45:55;6.53;;;6.03;;
10269;SDS011;70826;50.930;5.334;2023-07-31T01:48:20;6.22;;;5.72;;
10269;SDS011;70826;50.930;5.334;2023-07-31T01:50:46;7.00;;;6.40;;
10269;SDS011;70826;50.930;5.334;2023-07-31T01:53:14;6.45;;;5.95;;
10269;SDS011;70826;50.930;5.334;2023-07-31T01:55:42;6.28;;;5.75;;
10269;SDS011;70826;50.930;5.334;2023-07-31T01:58:10;6.03;;;5.53;;
10269;SDS011;70826;50.930;5.334;2023-07-31T02:00:35;6.22;;;5.72;;
10269;SDS011;70826;50.930;5.334;2023-07-31T02:03:01;6.13;;;5.63;;
10269;SDS011;70826;50.930;5.334;2023-07-31T02:05:26;6.07;;;5.63;;
10269;SDS011;70826;50.930;5.334;2023-07-31T02:07:52;5.82;;;5.43;;
10269;SDS011;70826;50.930;5.334;2023-07-31T02:10:20;6.47;;;5.85;;
10269;SDS011;70826;50.930;5.334;2023-07-31T02:12:47;6.15;;;5.70;;
10269;SDS011;70826;50.930;5.334;2023-07-31T02:15:13;6.55;;;5.95;;
10269;SDS011;70826;50.930;5.334;2023-07-31T02:17:41;5.93;;;5.47;;
10269;SDS011;70826;50.930;5.334;2023-07-31T02:20:11;5.80;;;5.38;;
10269;SDS011;70826;50.930;5.334;2023-07-31T02:22:39;6.13;;;5.63;;
10269;SDS011;70826;50.930;5.334;2023-07-31T02:25:07;6.55;;;6.05;;
10269;SDS011;70826;50.930;5.334;2023-07-31T02:27:35;6.22;;;5.72;;
10269;SDS011;70826;50.930;5.334;2023-07-31T02:30:01;5.90;;;5.40;;
10269;SDS011;70826;50.930;5.334;2023-07-31T02:32:29;6.00;;;5.60;;
10269;SDS011;70826;50.930;5.334;2023-07-31T02:34:54;5.72;;;5.32;;
10269;SDS011;70826;50.930;5.334;2023-07-31T02:37:20;6.13;;;5.63;;
10269;SDS011;70826;50.930;5.334;2023-07-31T02:39:48;5.72;;;5.32;;
10269;SDS011;70826;50.930;5.334;2023-07-31T02:42:14;5.65;;;5.25;;
10269;SDS011;70826;50.930;5.334;2023-07-31T02:44:45;6.30;;;5.80;;
10269;SDS011;70826;50.930;5.334;2023-07-31T02:47:13;6.32;;;5.82;;
10269;SDS011;70826;50.930;5.334;2023-07-31T02:49:38;6.38;;;5.88;;
10269;SDS011;70826;50.930;5.334;2023-07-31T02:52:06;6.35;;;5.82;;
10269;SDS011;70826;50.930;5.334;2023-07-31T02:54:34;6.68;;;6.18;;
10269;SDS011;70826;50.930;5.334;2023-07-31T02:57:02;6.40;;;5.90;;
10269;SDS011;70826;50.930;5.334;2023-07-31T02:59:30;5.95;;;5.53;;
10269;SDS011;70826;50.930;5.334;2023-07-31T03:01:56;6.18;;;5.72;;
10269;SDS011;70826;50.930;5.334;2023-07-31T03:04:24;6.95;;;6.35;;
10269;SDS011;70826;50.930;5.334;2023-07-31T03:06:49;6.60;;;6.10;;
10269;SDS011;70826;50.930;5.334;2023-07-31T03:09:15;6.78;;;6.28;;
10269;SDS011;70826;50.930;5.334;2023-07-31T03:11:43;5.97;;;5.57;;
10269;SDS011;70826;50.930;5.334;2023-07-31T03:14:11;6.25;;;5.75;;
10269;SDS011;70826;50.930;5.334;2023-07-31T03:16:39;6.47;;;6.05;;
10269;SDS011;70826;50.930;5.334;2023-07-31T03:19:07;6.65;;;6.18;;
10269;SDS011;70826;50.930;5.334;2023-07-31T03:21:34;6.45;;;5.95;;
10269;SDS011;70826;50.930;5.334;2023-07-31T03:24:02;5.85;;;5.45;;
10269;SDS011;70826;50.930;5.334;2023-07-31T03:26:33;6.20;;;5.80;;
10269;SDS011;70826;50.930;5.334;2023-07-31T03:29:04;6.20;;;5.70;;
10269;SDS011;70826;50.930;5.334;2023-07-31T03:31:32;6.40;;;6.00;;
10269;SDS011;70826;50.930;5.334;2023-07-31T03:34:02;6.50;;;6.00;;
10269;SDS011;70826;50.930;5.334;2023-07-31T03:36:29;6.35;;;5.85;;
10269;SDS011;70826;50.930;5.334;2023-07-31T03:38:55;6.55;;;6.07;;
10269;SDS011;70826;50.930;5.334;2023-07-31T03:41:23;6.47;;;5.97;;
10269;SDS011;70826;50.930;5.334;2023-07-31T03:43:53;6.15;;;5.75;;
10269;SDS011;70826;50.930;5.334;2023-07-31T03:46:21;6.68;;;6.18;;
10269;SDS011;70826;50.930;5.334;2023-07-31T03:48:47;6.07;;;5.68;;
10269;SDS011;70826;50.930;5.334;2023-07-31T03:51:13;6.53;;;5.93;;
10269;SDS011;70826;50.930;5.334;2023-07-31T03:53:39;6.05;;;5.60;;
10269;SDS011;70826;50.930;5.334;2023-07-31T03:56:06;6.07;;;5.63;;
10269;SDS011;70826;50.930;5.334;2023-07-31T03:58:34;6.18;;;5.70;;
10269;SDS011;70826;50.930;5.334;2023-07-31T04:01:05;6.35;;;5.85;;
10269;SDS011;70826;50.930;5.334;2023-07-31T04:03:33;6.32;;;5.72;;
10269;SDS011;70826;50.930;5.334;2023-07-31T04:05:59;6.75;;;6.15;;
10269;SDS011;70826;50.930;5.334;2023-07-31T04:08:24;6.53;;;5.93;;
10269;SDS011;70826;50.930;5.334;2023-07-31T04:10:52;6.35;;;5.85;;
10269;SDS011;70826;50.930;5.334;2023-07-31T04:13:18;6.22;;;5.82;;
10269;SDS011;70826;50.930;5.334;2023-07-31T04:15:49;6.65;;;6.15;;
10269;SDS011;70826;50.930;5.334;2023-07-31T04:18:17;6.45;;;5.95;;
10269;SDS011;70826;50.930;5.334;2023-07-31T04:20:43;6.38;;;5.97;;
10269;SDS011;70826;50.930;5.334;2023-07-31T04:23:08;6.30;;;5.80;;
10269;SDS011;70826;50.930;5.334;2023-07-31T04:25:34;6.80;;;6.30;;
10269;SDS011;70826;50.930;5.334;2023-07-31T04:28:00;6.30;;;5.78;;
10269;SDS011;70826;50.930;5.334;2023-07-31T04:30:28;6.93;;;6.32;;
10269;SDS011;70826;50.930;5.334;2023-07-31T04:32:53;6.45;;;5.93;;
10269;SDS011;70826;50.930;5.334;2023-07-31T04:35:21;6.18;;;5.78;;
10269;SDS011;70826;50.930;5.334;2023-07-31T04:37:47;6.05;;;5.55;;
10269;SDS011;70826;50.930;5.334;2023-07-31T04:40:17;6.72;;;6.22;;
10269;SDS011;70826;50.930;5.334;2023-07-31T04:42:43;6.05;;;5.63;;
10269;SDS011;70826;50.930;5.334;2023-07-31T04:45:09;6.63;;;6.13;;
10269;SDS011;70826;50.930;5.334;2023-07-31T04:47:34;6.25;;;5.85;;
10269;SDS011;70826;50.930;5.334;2023-07-31T04:50:02;6.03;;;5.63;;
10269;SDS011;70826;50.930;5.334;2023-07-31T04:52:32;6.50;;;5.90;;
10269;SDS011;70826;50.930;5.334;2023-07-31T04:55:01;6.30;;;5.85;;
10269;SDS011;70826;50.930;5.334;2023-07-31T04:57:26;6.22;;;5.72;;
10269;SDS011;70826;50.930;5.334;2023-07-31T04:59:52;6.22;;;5.75;;
10269;SDS011;70826;50.930;5.334;2023-07-31T05:02:20;6.43;;;5.97;;
10269;SDS011;70826;50.930;5.334;2023-07-31T05:04:46;6.43;;;5.93;;
10269;SDS011;70826;50.930;5.334;2023-07-31T05:07:11;6.18;;;5.78;;
10269;SDS011;70826;50.930;5.334;2023-07-31T05:09:41;6.15;;;5.65;;
10269;SDS011;70826;50.930;5.334;2023-07-31T05:12:09;6.05;;;5.65;;
10269;SDS011;70826;50.930;5.334;2023-07-31T05:14:35;6.35;;;5.95;;
10269;SDS011;70826;50.930;5.334;2023-07-31T05:17:05;6.43;;;6.03;;
10269;SDS011;70826;50.930;5.334;2023-07-31T05:19:36;6.20;;;5.70;;
10269;SDS011;70826;50.930;5.334;2023-07-31T05:22:04;6.38;;;5.88;;
10269;SDS011;70826;50.930;5.334;2023-07-31T05:24:29;6.22;;;5.72;;
10269;SDS011;70826;50.930;5.334;2023-07-31T05:26:58;6.38;;;5.88;;
10269;SDS011;70826;50.930;5.334;2023-07-31T05:29:24;6.43;;;6.03;;
10269;SDS011;70826;50.930;5.334;2023-07-31T05:31:52;7.10;;;6.60;;
10269;SDS011;70826;50.930;5.334;2023-07-31T05:34:20;5.88;;;5.47;;
10269;SDS011;70826;50.930;5.334;2023-07-31T05:36:47;6.38;;;5.88;;
10269;SDS011;70826;50.930;5.334;2023-07-31T05:39:13;6.10;;;5.70;;
10269;SDS011;70826;50.930;5.334;2023-07-31T05:41:43;5.97;;;5.57;;
10269;SDS011;70826;50.930;5.334;2023-07-31T05:44:14;6.22;;;5.72;;
10269;SDS011;70826;50.930;5.334;2023-07-31T05:46:44;6.35;;;5.85;;
10269;SDS011;70826;50.930;5.334;2023-07-31T05:49:10;6.22;;;5.75;;
10269;SDS011;70826;50.930;5.334;2023-07-31T05:51:38;6.47;;;5.97;;
10269;SDS011;70826;50.930;5.334;2023-07-31T05:54:06;6.40;;;5.82;;
10269;SDS011;70826;50.930;5.334;2023-07-31T05:56:34;6.45;;;5.85;;
10269;SDS011;70826;50.930;5.334;2023-07-31T05:59:03;6.45;;;5.85;;
10269;SDS011;70826;50.930;5.334;2023-07-31T06:01:33;6.00;;;5.57;;
10269;SDS011;70826;50.930;5.334;2023-07-31T06:04:01;6.32;;;5.72;;
10269;SDS011;70826;50.930;5.334;2023-07-31T06:06:31;6.13;;;5.63;;
10269;SDS011;70826;50.930;5.334;2023-07-31T06:08:59;5.75;;;5.35;;
10269;SDS011;70826;50.930;5.334;2023-07-31T06:11:25;6.13;;;5.63;;
10269;SDS011;70826;50.930;5.334;2023-07-31T06:13:51;6.25;;;5.75;;
10269;SDS011;70826;50.930;5.334;2023-07-31T06:16:22;6.28;;;5.75;;
10269;SDS011;70826;50.930;5.334;2023-07-31T06:18:48;5.85;;;5.38;;
10269;SDS011;70826;50.930;5.334;2023-07-31T06:21:16;6.55;;;6.05;;
10269;SDS011;70826;50.930;5.334;2023-07-31T06:23:42;6.07;;;5.57;;
10269;SDS011;70826;50.930;5.334;2023-07-31T06:26:08;5.85;;;5.45;;
10269;SDS011;70826;50.930;5.334;2023-07-31T06:28:36;6.15;;;5.75;;
10269;SDS011;70826;50.930;5.334;2023-07-31T06:31:01;5.95;;;5.55;;
10269;SDS011;70826;50.930;5.334;2023-07-31T06:33:29;6.07;;;5.55;;
10269;SDS011;70826;50.930;5.334;2023-07-31T06:35:57;5.80;;;5.40;;
10269;SDS011;70826;50.930;5.334;2023-07-31T06:38:24;5.95;;;5.55;;
10269;SDS011;70826;50.930;5.334;2023-07-31T06:40:53;5.85;;;5.45;;
10269;SDS011;70826;50.930;5.334;2023-07-31T06:43:21;6.00;;;5.60;;
10269;SDS011;70826;50.930;5.334;2023-07-31T06:45:49;6.72;;;6.00;;
10269;SDS011;70826;50.930;5.334;2023-07-31T06:48:18;5.88;;;5.45;;
10269;SDS011;70826;50.930;5.334;2023-07-31T06:50:44;5.88;;;5.47;;
10269;SDS011;70826;50.930;5.334;2023-07-31T06:53:12;5.85;;;5.40;;
10269;SDS011;70826;50.930;5.334;2023-07-31T06:55:40;6.07;;;5.57;;
10269;SDS011;70826;50.930;5.334;2023-07-31T06:58:09;5.60;;;5.20;;
10269;SDS011;70826;50.930;5.334;2023-07-31T07:00:37;5.57;;;5.18;;
10269;SDS011;70826;50.930;5.334;2023-07-31T07:03:05;5.80;;;5.30;;
10269;SDS011;70826;50.930;5.334;2023-07-31T07:05:31;5.82;;;5.32;;
10269;SDS011;70826;50.930;5.334;2023-07-31T07:08:01;5.40;;;5.00;;
10269;SDS011;70826;50.930;5.334;2023-07-31T07:10:27;6.25;;;5.65;;
10269;SDS011;70826;50.930;5.334;2023-07-31T07:12:52;6.95;;;5.00;;
10269;SDS011;70826;50.930;5.334;2023-07-31T07:15:20;8.50;;;5.07;;
10269;SDS011;70826;50.930;5.334;2023-07-31T07:17:46;18.65;;;7.43;;
10269;SDS011;70826;50.930;5.334;2023-07-31T07:20:14;17.20;;;7.43;;
10269;SDS011;70826;50.930;5.334;2023-07-31T07:22:39;13.52;;;6.28;;
10269;SDS011;70826;50.930;5.334;2023-07-31T07:25:08;16.85;;;5.90;;
10269;SDS011;70826;50.930;5.334;2023-07-31T07:27:36;9.20;;;5.45;;
10269;SDS011;70826;50.930;5.334;2023-07-31T07:30:04;10.93;;;5.47;;
10269;SDS011;70826;50.930;5.334;2023-07-31T07:32:32;9.70;;;5.05;;
10269;SDS011;70826;50.930;5.334;2023-07-31T07:35:00;13.00;;;4.30;;
10269;SDS011;70826;50.930;5.334;2023-07-31T07:37:28;8.98;;;4.38;;
10269;SDS011;70826;50.930;5.334;2023-07-31T07:39:57;7.57;;;3.83;;
10269;SDS011;70826;50.930;5.334;2023-07-31T07:42:22;9.63;;;4.20;;
10269;SDS011;70826;50.930;5.334;2023-07-31T07:44:50;7.50;;;3.60;;
10269;SDS011;70826;50.930;5.334;2023-07-31T07:47:21;7.03;;;3.53;;
10269;SDS011;70826;50.930;5.334;2023-07-31T07:49:47;7.75;;;3.67;;
10269;SDS011;70826;50.930;5.334;2023-07-31T07:52:15;6.28;;;3.58;;
10269;SDS011;70826;50.930;5.334;2023-07-31T07:54:40;6.28;;;3.40;;
10269;SDS011;70826;50.930;5.334;2023-07-31T07:57:11;5.20;;;3.30;;
10269;SDS011;70826;50.930;5.334;2023-07-31T07:59:40;6.47;;;3.60;;
10269;SDS011;70826;50.930;5.334;2023-07-31T08:02:10;7.18;;;3.78;;
10269;SDS011;70826;50.930;5.334;2023-07-31T08:04:38;5.10;;;3.35;;
10269;SDS011;70826;50.930;5.334;2023-07-31T08:07:04;6.40;;;3.55;;
10269;SDS011;70826;50.930;5.334;2023-07-31T08:09:30;4.30;;;3.45;;
10269;SDS011;70826;50.930;5.334;2023-07-31T08:11:55;3.83;;;3.20;;
10269;SDS011;70826;50.930;5.334;2023-07-31T08:14:26;4.32;;;3.50;;
10269;SDS011;70826;50.930;5.334;2023-07-31T08:16:52;4.45;;;3.40;;
10269;SDS011;70826;50.930;5.334;2023-07-31T08:19:20;3.83;;;3.40;;
10269;SDS011;70826;50.930;5.334;2023-07-31T08:21:51;4.03;;;3.55;;
10269;SDS011;70826;50.930;5.334;2023-07-31T08:24:16;4.07;;;3.20;;
10269;SDS011;70826;50.930;5.334;2023-07-31T08:26:42;5.55;;;3.42;;
10269;SDS011;70826;50.930;5.334;2023-07-31T08:29:07;4.28;;;3.30;;
10269;SDS011;70826;50.930;5.334;2023-07-31T08:31:36;5.32;;;3.28;;
10269;SDS011;70826;50.930;5.334;2023-07-31T08:34:06;4.53;;;3.45;;
10269;SDS011;70826;50.930;5.334;2023-07-31T08:36:32;3.85;;;3.38;;
10269;SDS011;70826;50.930;5.334;2023-07-31T08:38:59;4.70;;;3.35;;
10269;SDS011;70826;50.930;5.334;2023-07-31T08:41:25;4.35;;;3.53;;
10269;SDS011;70826;50.930;5.334;2023-07-31T08:43:54;3.80;;;3.20;;
10269;SDS011;70826;50.930;5.334;2023-07-31T08:46:21;3.60;;;3.25;;
10269;SDS011;70826;50.930;5.334;2023-07-31T08:48:48;4.35;;;3.60;;
10269;SDS011;70826;50.930;5.334;2023-07-31T08:51:14;4.38;;;3.53;;
10269;SDS011;70826;50.930;5.334;2023-07-31T08:53:40;4.43;;;3.47;;
10269;SDS011;70826;50.930;5.334;2023-07-31T08:56:06;3.67;;;3.38;;
10269;SDS011;70826;50.930;5.334;2023-07-31T08:58:35;3.63;;;3.28;;
10269;SDS011;70826;50.930;5.334;2023-07-31T09:01:04;3.78;;;3.40;;
10269;SDS011;70826;50.930;5.334;2023-07-31T09:03:33;4.00;;;3.60;;
10269;SDS011;70826;50.930;5.334;2023-07-31T09:06:02;4.03;;;3.70;;
10269;SDS011;70826;50.930;5.334;2023-07-31T09:08:31;3.92;;;3.63;;
10269;SDS011;70826;50.930;5.334;2023-07-31T09:10:59;3.40;;;3.10;;
10269;SDS011;70826;50.930;5.334;2023-07-31T09:13:30;3.97;;;3.67;;
10269;SDS011;70826;50.930;5.334;2023-07-31T09:15:57;4.00;;;3.67;;
10269;SDS011;70826;50.930;5.334;2023-07-31T09:18:22;4.13;;;3.72;;
10269;SDS011;70826;50.930;5.334;2023-07-31T09:21:04;4.10;;;3.75;;
10269;SDS011;70826;50.930;5.334;2023-07-31T09:23:49;4.43;;;4.03;;
10269;SDS011;70826;50.930;5.334;2023-07-31T09:26:33;5.78;;;5.28;;
10269;SDS011;70826;50.930;5.334;2023-07-31T09:29:05;5.97;;;5.38;;
10269;SDS011;70826;50.930;5.334;2023-07-31T09:31:42;5.55;;;5.15;;
10269;SDS011;70826;50.930;5.334;2023-07-31T09:34:09;5.75;;;5.25;;
10269;SDS011;70826;50.930;5.334;2023-07-31T09:39:13;5.43;;;4.95;;
10269;SDS011;70826;50.930;5.334;2023-07-31T09:41:46;5.32;;;4.85;;
10269;SDS011;70826;50.930;5.334;2023-07-31T09:44:18;5.10;;;4.70;;
10269;SDS011;70826;50.930;5.334;2023-07-31T09:46:48;5.20;;;4.80;;
10269;SDS011;70826;50.930;5.334;2023-07-31T09:49:17;6.20;;;5.63;;
10269;SDS011;70826;50.930;5.334;2023-07-31T09:51:42;5.00;;;4.70;;
10269;SDS011;70826;50.930;5.334;2023-07-31T09:54:14;5.13;;;4.82;;
10269;SDS011;70826;50.930;5.334;2023-07-31T09:56:41;5.47;;;5.07;;
10269;SDS011;70826;50.930;5.334;2023-07-31T09:59:15;5.45;;;5.05;;
10269;SDS011;70826;50.930;5.334;2023-07-31T10:01:42;5.47;;;5.07;;
10269;SDS011;70826;50.930;5.334;2023-07-31T10:04:10;5.20;;;4.80;;
10269;SDS011;70826;50.930;5.334;2023-07-31T10:06:36;5.07;;;4.78;;
10269;SDS011;70826;50.930;5.334;2023-07-31T10:09:07;5.40;;;5.00;;
10269;SDS011;70826;50.930;5.334;2023-07-31T10:11:42;5.30;;;5.00;;
10269;SDS011;70826;50.930;5.334;2023-07-31T10:14:16;5.78;;;5.35;;
10269;SDS011;70826;50.930;5.334;2023-07-31T10:16:49;5.53;;;5.13;;
10269;SDS011;70826;50.930;5.334;2023-07-31T10:19:18;5.60;;;5.30;;
10269;SDS011;70826;50.930;5.334;2023-07-31T10:21:49;5.63;;;5.22;;
10269;SDS011;70826;50.930;5.334;2023-07-31T10:24:17;5.45;;;5.07;;
10269;SDS011;70826;50.930;5.334;2023-07-31T10:26:44;5.70;;;5.30;;
10269;SDS011;70826;50.930;5.334;2023-07-31T10:29:12;5.30;;;5.00;;
10269;SDS011;70826;50.930;5.334;2023-07-31T10:31:39;5.28;;;4.97;;
10269;SDS011;70826;50.930;5.334;2023-07-31T10:34:05;5.25;;;4.85;;
10269;SDS011;70826;50.930;5.334;2023-07-31T10:36:31;5.65;;;5.25;;
10269;SDS011;70826;50.930;5.334;2023-07-31T10:38:57;4.97;;;4.68;;
10269;SDS011;70826;50.930;5.334;2023-07-31T10:41:29;5.90;;;5.50;;
10269;SDS011;70826;50.930;5.334;2023-07-31T10:43:58;5.45;;;5.10;;
10269;SDS011;70826;50.930;5.334;2023-07-31T10:46:30;5.25;;;4.85;;
10269;SDS011;70826;50.930;5.334;2023-07-31T10:48:59;4.82;;;4.53;;
10269;SDS011;70826;50.930;5.334;2023-07-31T10:51:35;4.93;;;4.63;;
10269;SDS011;70826;50.930;5.334;2023-07-31T10:54:11;4.93;;;4.63;;
10269;SDS011;70826;50.930;5.334;2023-07-31T10:56:37;5.45;;;5.07;;
10269;SDS011;70826;50.930;5.334;2023-07-31T10:59:04;5.07;;;4.78;;
10269;SDS011;70826;50.930;5.334;2023-07-31T11:02:04;5.22;;;4.82;;
10269;SDS011;70826;50.930;5.334;2023-07-31T11:04:27;5.10;;;4.80;;
10269;SDS011;70826;50.930;5.334;2023-07-31T11:06:58;5.07;;;4.68;;
10269;SDS011;70826;50.930;5.334;2023-07-31T11:09:33;5.05;;;4.70;;
10269;SDS011;70826;50.930;5.334;2023-07-31T11:11:59;4.97;;;4.68;;
10269;SDS011;70826;50.930;5.334;2023-07-31T11:14:25;5.30;;;4.90;;
10269;SDS011;70826;50.930;5.334;2023-07-31T11:16:51;4.78;;;4.47;;
10269;SDS011;70826;50.930;5.334;2023-07-31T11:19:23;5.75;;;5.25;;
10269;SDS011;70826;50.930;5.334;2023-07-31T11:21:50;4.82;;;4.53;;
10269;SDS011;70826;50.930;5.334;2023-07-31T11:24:20;5.38;;;4.97;;
10269;SDS011;70826;50.930;5.334;2023-07-31T11:26:52;5.30;;;4.90;;
10269;SDS011;70826;50.930;5.334;2023-07-31T11:29:20;5.35;;;4.95;;
10269;SDS011;70826;50.930;5.334;2023-07-31T11:31:55;5.57;;;5.18;;
10269;SDS011;70826;50.930;5.334;2023-07-31T11:34:20;5.60;;;5.28;;
10269;SDS011;70826;50.930;5.334;2023-07-31T11:36:54;5.75;;;5.35;;
10269;SDS011;70826;50.930;5.334;2023-07-31T11:39:22;5.78;;;5.35;;
10269;SDS011;70826;50.930;5.334;2023-07-31T11:41:58;5.68;;;5.28;;
10269;SDS011;70826;50.930;5.334;2023-07-31T11:44:37;6.35;;;5.95;;
10269;SDS011;70826;50.930;5.334;2023-07-31T11:47:12;5.90;;;5.50;;
10269;SDS011;70826;50.930;5.334;2023-07-31T11:49:41;6.38;;;5.88;;
10269;SDS011;70826;50.930;5.334;2023-07-31T11:52:07;6.38;;;5.88;;
10269;SDS011;70826;50.930;5.334;2023-07-31T11:54:33;6.28;;;5.88;;
10269;SDS011;70826;50.930;5.334;2023-07-31T11:56:58;5.20;;;4.90;;
10269;SDS011;70826;50.930;5.334;2023-07-31T11:59:26;6.25;;;5.82;;
10269;SDS011;70826;50.930;5.334;2023-07-31T12:01:52;5.85;;;5.45;;
10269;SDS011;70826;50.930;5.334;2023-07-31T12:04:18;6.28;;;5.78;;
10269;SDS011;70826;50.930;5.334;2023-07-31T12:06:46;5.90;;;5.50;;
10269;SDS011;70826;50.930;5.334;2023-07-31T12:09:15;5.82;;;5.43;;
10269;SDS011;70826;50.930;5.334;2023-07-31T12:11:47;6.45;;;6.05;;
10269;SDS011;70826;50.930;5.334;2023-07-31T12:14:34;6.15;;;5.65;;
10269;SDS011;70826;50.930;5.334;2023-07-31T12:17:00;5.80;;;5.40;;
10269;SDS011;70826;50.930;5.334;2023-07-31T12:19:29;10.57;;;5.50;;
10269;SDS011;70826;50.930;5.334;2023-07-31T12:22:10;33.70;;;6.55;;
10269;SDS011;70826;50.930;5.334;2023-07-31T12:24:42;26.38;;;6.47;;
10269;SDS011;70826;50.930;5.334;2023-07-31T12:27:14;27.73;;;6.35;;
10269;SDS011;70826;50.930;5.334;2023-07-31T12:29:43;25.55;;;5.95;;
10269;SDS011;70826;50.930;5.334;2023-07-31T12:32:20;20.45;;;5.72;;
10269;SDS011;70826;50.930;5.334;2023-07-31T12:34:50;17.77;;;5.80;;
10269;SDS011;70826;50.930;5.334;2023-07-31T12:37:15;15.90;;;5.50;;
10269;SDS011;70826;50.930;5.334;2023-07-31T12:39:41;11.85;;;4.90;;
10269;SDS011;70826;50.930;5.334;2023-07-31T12:42:09;14.93;;;5.63;;
10269;SDS011;70826;50.930;5.334;2023-07-31T12:44:37;9.93;;;4.97;;
10269;SDS011;70826;50.930;5.334;2023-07-31T12:47:03;15.65;;;5.88;;
10269;SDS011;70826;50.930;5.334;2023-07-31T12:49:29;13.15;;;5.25;;
10269;SDS011;70826;50.930;5.334;2023-07-31T12:51:57;14.05;;;5.00;;
10269;SDS011;70826;50.930;5.334;2023-07-31T12:54:25;11.20;;;5.22;;
10269;SDS011;70826;50.930;5.334;2023-07-31T12:56:50;10.73;;;5.43;;
10269;SDS011;70826;50.930;5.334;2023-07-31T12:59:16;7.97;;;5.43;;
10269;SDS011;70826;50.930;5.334;2023-07-31T13:01:42;10.15;;;5.22;;
10269;SDS011;70826;50.930;5.334;2023-07-31T13:04:07;11.00;;;5.75;;
10269;SDS011;70826;50.930;5.334;2023-07-31T13:06:33;8.27;;;5.25;;
10269;SDS011;70826;50.930;5.334;2023-07-31T13:08:59;8.63;;;4.93;;
10269;SDS011;70826;50.930;5.334;2023-07-31T13:11:24;21.02;;;7.78;;
10269;SDS011;70826;50.930;5.334;2023-07-31T13:13:50;34.38;;;6.78;;
10269;SDS011;70826;50.930;5.334;2023-07-31T13:16:16;34.08;;;6.50;;
10269;SDS011;70826;50.930;5.334;2023-07-31T13:18:44;26.38;;;6.40;;
10269;SDS011;70826;50.930;5.334;2023-07-31T13:21:12;21.70;;;5.97;;
10269;SDS011;70826;50.930;5.334;2023-07-31T13:23:40;26.38;;;5.95;;
10269;SDS011;70826;50.930;5.334;2023-07-31T13:26:11;38.05;;;6.50;;
10269;SDS011;70826;50.930;5.334;2023-07-31T13:28:36;29.75;;;6.30;;
10269;SDS011;70826;50.930;5.334;2023-07-31T13:31:07;35.28;;;6.72;;
10269;SDS011;70826;50.930;5.334;2023-07-31T13:33:32;33.97;;;6.22;;
10269;SDS011;70826;50.930;5.334;2023-07-31T13:35:58;25.80;;;6.47;;
10269;SDS011;70826;50.930;5.334;2023-07-31T13:38:23;28.17;;;6.32;;
10269;SDS011;70826;50.930;5.334;2023-07-31T13:40:49;39.17;;;7.13;;
10269;SDS011;70826;50.930;5.334;2023-07-31T13:43:15;30.90;;;6.43;;
10269;SDS011;70826;50.930;5.334;2023-07-31T13:45:40;18.95;;;5.88;;
10269;SDS011;70826;50.930;5.334;2023-07-31T13:48:06;25.45;;;6.20;;
10269;SDS011;70826;50.930;5.334;2023-07-31T13:50:31;16.08;;;5.65;;
10269;SDS011;70826;50.930;5.334;2023-07-31T13:52:57;18.75;;;5.95;;
10269;SDS011;70826;50.930;5.334;2023-07-31T13:55:23;16.77;;;5.20;;
10269;SDS011;70826;50.930;5.334;2023-07-31T13:57:48;19.48;;;5.50;;
10269;SDS011;70826;50.930;5.334;2023-07-31T14:00:14;18.20;;;5.68;;
10269;SDS011;70826;50.930;5.334;2023-07-31T14:02:42;14.05;;;5.60;;
10269;SDS011;70826;50.930;5.334;2023-07-31T14:05:10;14.32;;;5.22;;
10269;SDS011;70826;50.930;5.334;2023-07-31T14:07:36;14.75;;;5.05;;
10269;SDS011;70826;50.930;5.334;2023-07-31T14:10:01;15.32;;;5.15;;
10269;SDS011;70826;50.930;5.334;2023-07-31T14:12:29;11.43;;;5.60;;
10269;SDS011;70826;50.930;5.334;2023-07-31T14:14:58;13.80;;;5.22;;
10269;SDS011;70826;50.930;5.334;2023-07-31T14:17:25;11.45;;;5.15;;
10269;SDS011;70826;50.930;5.334;2023-07-31T14:19:51;10.65;;;5.25;;
10269;SDS011;70826;50.930;5.334;2023-07-31T14:22:30;8.75;;;4.63;;
10269;SDS011;70826;50.930;5.334;2023-07-31T14:24:58;12.98;;;5.10;;
10269;SDS011;70826;50.930;5.334;2023-07-31T14:27:27;14.93;;;5.35;;
10269;SDS011;70826;50.930;5.334;2023-07-31T14:29:55;9.20;;;4.82;;
10269;SDS011;70826;50.930;5.334;2023-07-31T14:32:21;9.50;;;5.13;;
10269;SDS011;70826;50.930;5.334;2023-07-31T14:34:50;11.02;;;4.97;;
10269;SDS011;70826;50.930;5.334;2023-07-31T14:37:19;8.18;;;4.85;;
10269;SDS011;70826;50.930;5.334;2023-07-31T14:39:45;7.70;;;5.20;;
10269;SDS011;70826;50.930;5.334;2023-07-31T14:42:10;7.82;;;4.82;;
10269;SDS011;70826;50.930;5.334;2023-07-31T14:44:36;6.60;;;4.75;;
10269;SDS011;70826;50.930;5.334;2023-07-31T14:47:04;8.23;;;5.13;;
10269;SDS011;70826;50.930;5.334;2023-07-31T14:49:32;9.32;;;4.80;;
10269;SDS011;70826;50.930;5.334;2023-07-31T14:51:58;7.55;;;4.93;;
10269;SDS011;70826;50.930;5.334;2023-07-31T14:54:28;7.43;;;4.50;;
10269;SDS011;70826;50.930;5.334;2023-07-31T14:56:54;8.60;;;4.50;;
10269;SDS011;70826;50.930;5.334;2023-07-31T14:59:22;6.57;;;4.35;;
10269;SDS011;70826;50.930;5.334;2023-07-31T15:01:47;7.70;;;4.68;;